createdAt,value
2022-09-01T00:00:21.346Z,65.42
2022-09-01T00:05:23.575Z,65.21
2022-09-01T00:10:26.459Z,65.53
2022-09-01T00:15:28.430Z,65.30
2022-09-01T00:20:30.471Z,65.71
2022-09-01T00:25:32.249Z,65.49
2022-09-01T00:30:34.094Z,65.80
2022-09-01T00:35:37.508Z,65.73
2022-09-01T00:40:39.994Z,65.67
2022-09-01T00:45:42.493Z,65.72
2022-09-01T00:50:44.436Z,65.86
2022-09-01T00:55:51.462Z,65.76
2022-09-01T01:00:54.157Z,65.73
2022-09-01T01:06:01.626Z,65.81
2022-09-01T01:11:11.502Z,65.85
2022-09-01T01:16:16.017Z,66.10
2022-09-01T01:21:45.477Z,66.21
2022-09-01T01:26:47.674Z,66.02
2022-09-01T01:31:54.169Z,66.42
2022-09-01T01:37:00.082Z,66.26
2022-09-01T01:42:02.123Z,66.51
2022-09-01T01:47:13.158Z,66.28
2022-09-01T01:52:17.513Z,66.42
2022-09-01T01:57:21.165Z,66.27
2022-09-01T02:02:23.142Z,66.49
2022-09-01T02:07:25.220Z,66.73
2022-09-01T02:12:27.820Z,66.70
2022-09-01T02:17:29.788Z,66.81
2022-09-01T02:22:31.747Z,66.65
2022-09-01T02:27:38.152Z,66.62
2022-09-01T02:32:41.944Z,66.83
2022-09-01T02:37:43.796Z,66.73
2022-09-01T02:42:48.228Z,66.78
2022-09-01T02:47:51.894Z,66.97
2022-09-01T02:52:54.952Z,66.88
2022-09-01T02:57:58.239Z,67.29
2022-09-01T03:03:02.479Z,67.16
2022-09-01T03:08:10.545Z,67.18
2022-09-01T03:13:22.204Z,67.18
2022-09-01T03:18:24.201Z,67.28
2022-09-01T03:23:27.864Z,67.19
2022-09-01T03:28:30.522Z,67.37
2022-09-01T03:33:34.501Z,67.55
2022-09-01T03:38:36.624Z,67.33
2022-09-01T03:43:47.031Z,67.31
2022-09-01T03:48:55.286Z,67.47
2022-09-01T03:53:59.321Z,67.64
2022-09-01T03:59:01.986Z,67.59
2022-09-01T04:04:04.793Z,67.71
2022-09-01T04:09:08.476Z,67.71
2022-09-01T04:14:11.906Z,67.62
2022-09-01T04:19:25.873Z,67.81
2022-09-01T04:24:32.741Z,67.54
2022-09-01T04:29:36.152Z,67.60
2022-09-01T04:34:41.903Z,67.82
2022-09-01T04:39:56.911Z,67.80
2022-09-01T04:45:02.071Z,67.59
2022-09-01T04:50:14.890Z,67.72
2022-09-01T04:55:41.290Z,67.67
2022-09-01T05:00:45.618Z,67.94
2022-09-01T05:05:47.789Z,67.96
2022-09-01T05:10:53.713Z,67.99
2022-09-01T05:16:13.503Z,67.88
2022-09-01T05:21:22.594Z,68.10
2022-09-01T05:26:31.967Z,68.13
2022-09-01T05:31:37.956Z,68.07
2022-09-01T05:36:46.411Z,67.97
2022-09-01T05:41:50.033Z,68.21
2022-09-01T05:46:56.684Z,68.07
2022-09-01T05:52:00.627Z,68.06
2022-09-01T05:57:30.337Z,68.29
2022-09-01T06:02:31.071Z,68.20
2022-09-01T06:07:36.656Z,68.08
2022-09-01T06:12:40.778Z,68.44
2022-09-01T06:17:44.165Z,68.39
2022-09-01T06:22:46.185Z,68.44
2022-09-01T06:27:49.100Z,68.62
2022-09-01T06:32:51.842Z,68.74
2022-09-01T06:37:54.419Z,68.66
2022-09-01T06:43:25.844Z,68.57
2022-09-01T06:48:30.953Z,68.41
2022-09-01T06:59:06.292Z,68.62
2022-09-01T07:04:13.617Z,68.75
2022-09-01T07:09:21.624Z,68.71
2022-09-01T07:20:24.774Z,68.59
2022-09-01T07:25:34.927Z,68.73
2022-09-01T07:37:15.147Z,68.88
2022-09-01T07:39:57.603Z,68.60
2022-09-01T07:47:54.478Z,68.72
2022-09-01T07:52:58.443Z,68.85
2022-09-01T07:58:00.838Z,68.67
2022-09-01T08:03:04.509Z,68.86
2022-09-01T08:08:18.615Z,68.85
2022-09-01T08:13:22.331Z,68.34
2022-09-01T08:18:25.009Z,68.46
2022-09-01T08:23:29.184Z,68.29
2022-09-01T08:28:31.989Z,68.08
2022-09-01T08:33:35.598Z,67.79
2022-09-01T08:38:39.740Z,67.77
2022-09-01T08:44:00.572Z,67.63
2022-09-01T08:49:26.603Z,67.24
2022-09-01T08:54:44.357Z,67.50
2022-09-01T08:59:47.837Z,67.45
2022-09-01T09:05:18.133Z,67.38
2022-09-01T09:10:58.839Z,66.76
2022-09-01T09:16:26.392Z,66.44
2022-09-01T09:21:48.625Z,66.43
2022-09-01T09:26:56.783Z,66.22
2022-09-01T09:32:22.529Z,65.91
2022-09-01T09:37:29.615Z,65.46
2022-09-01T09:42:36.374Z,64.71
2022-09-01T09:47:45.392Z,65.11
2022-09-01T09:52:49.715Z,64.69
2022-09-01T09:57:56.872Z,64.42
2022-09-01T10:08:46.042Z,63.64
2022-09-01T10:13:47.951Z,64.00
2022-09-01T10:19:00.903Z,63.71
2022-09-01T10:24:21.300Z,63.73
2022-09-01T10:29:27.396Z,63.48
2022-09-01T10:34:35.265Z,63.29
2022-09-01T10:40:10.437Z,62.81
2022-09-01T10:45:40.922Z,62.83
2022-09-01T10:50:43.814Z,62.87
2022-09-01T10:56:02.033Z,63.08
2022-09-01T11:01:18.908Z,63.25
2022-09-01T11:06:42.952Z,62.69
2022-09-01T11:12:12.746Z,62.75
2022-09-01T11:17:34.998Z,62.73
2022-09-01T11:22:45.218Z,62.19
2022-09-01T11:27:49.943Z,61.87
2022-09-01T11:33:01.814Z,61.39
2022-09-01T11:38:09.360Z,61.16
2022-09-01T11:43:16.704Z,60.56
2022-09-01T11:48:19.522Z,60.37
2022-09-01T11:53:24.207Z,60.29
2022-09-01T11:58:34.830Z,59.52
2022-09-01T12:03:37.185Z,59.51
2022-09-01T12:08:43.246Z,59.18
2022-09-01T12:13:56.855Z,58.62
2022-09-01T12:18:59.924Z,59.07
2022-09-01T12:24:21.103Z,59.14
2022-09-01T12:29:23.514Z,59.16
2022-09-01T12:34:28.601Z,59.66
2022-09-01T12:39:36.100Z,59.27
2022-09-01T12:44:38.220Z,59.46
2022-09-01T12:49:50.257Z,59.15
2022-09-01T12:54:59.223Z,59.23
2022-09-01T13:00:36.695Z,58.77
2022-09-01T13:05:52.461Z,58.77
2022-09-01T13:10:58.338Z,58.89
2022-09-01T13:16:04.574Z,59.05
2022-09-01T13:21:07.345Z,59.16
2022-09-01T13:26:10.505Z,59.04
2022-09-01T13:31:29.092Z,58.57
2022-09-01T13:36:51.564Z,57.56
2022-09-01T13:41:54.138Z,56.99
2022-09-01T13:46:59.770Z,56.65
2022-09-01T13:52:03.302Z,56.99
2022-09-01T13:57:06.179Z,57.55
2022-09-01T14:02:08.618Z,57.30
2022-09-01T14:07:10.890Z,57.41
2022-09-01T14:12:12.886Z,57.07
2022-09-01T14:17:14.755Z,57.14
2022-09-01T14:22:17.252Z,56.36
2022-09-01T14:27:20.081Z,56.18
2022-09-01T14:32:27.045Z,56.05
2022-09-01T14:37:30.043Z,55.61
2022-09-01T14:42:33.313Z,55.05
2022-09-01T14:47:36.550Z,54.68
2022-09-01T14:52:38.476Z,54.34
2022-09-01T14:57:42.994Z,53.97
2022-09-01T15:02:46.458Z,53.93
2022-09-01T15:07:49.544Z,53.61
2022-09-01T15:12:52.324Z,53.72
2022-09-01T15:17:55.733Z,53.50
2022-09-01T15:22:57.820Z,53.17
2022-09-01T15:28:00.276Z,53.20
2022-09-01T15:33:02.803Z,53.63
2022-09-01T15:38:07.283Z,53.54
2022-09-01T15:43:11.704Z,53.26
2022-09-01T15:48:14.153Z,53.33
2022-09-01T15:53:16.121Z,53.67
2022-09-01T15:58:19.255Z,53.81
2022-09-01T16:03:21.415Z,53.92
2022-09-01T16:08:23.572Z,54.17
2022-09-01T16:13:26.131Z,54.66
2022-09-01T16:18:45.997Z,54.39
2022-09-01T16:23:52.077Z,54.83
2022-09-01T16:28:58.106Z,54.69
2022-09-01T16:34:10.327Z,54.86
2022-09-01T16:39:39.151Z,54.95
2022-09-01T16:45:43.313Z,55.13
2022-09-01T16:50:58.757Z,54.93
2022-09-01T16:56:36.095Z,55.06
2022-09-01T17:01:56.177Z,55.31
2022-09-01T17:07:02.934Z,55.13
2022-09-01T17:12:42.616Z,55.28
2022-09-01T17:17:47.200Z,55.35
2022-09-01T17:22:57.211Z,55.51
2022-09-01T17:28:04.574Z,55.56
2022-09-01T17:33:30.201Z,55.56
2022-09-01T17:38:35.114Z,55.59
2022-09-01T17:43:46.709Z,55.49
2022-09-01T17:49:08.637Z,55.46
2022-09-01T17:54:14.061Z,55.62
2022-09-01T17:59:22.834Z,55.31
2022-09-01T18:05:06.092Z,55.66
2022-09-01T18:10:13.809Z,55.42
2022-09-01T18:15:21.705Z,55.75
2022-09-01T18:20:29.262Z,56.13
2022-09-01T18:25:51.162Z,56.50
2022-09-01T18:31:02.217Z,56.67
2022-09-01T18:36:41.462Z,56.82
2022-09-01T18:42:04.381Z,57.18
2022-09-01T18:47:14.604Z,57.31
2022-09-01T18:52:47.295Z,57.43
2022-09-01T18:57:53.748Z,57.40
2022-09-01T19:03:18.300Z,57.48
2022-09-01T19:08:48.573Z,57.54
2022-09-01T19:14:06.569Z,57.82
2022-09-01T19:19:08.406Z,57.81
2022-09-01T19:24:27.088Z,57.77
2022-09-01T19:29:48.533Z,58.03
2022-09-01T19:34:54.858Z,57.90
2022-09-01T19:39:56.798Z,58.27
2022-09-01T19:45:57.113Z,58.55
2022-09-01T19:51:22.951Z,58.87
2022-09-01T19:56:49.398Z,58.88
2022-09-01T20:01:59.608Z,58.56
2022-09-01T20:07:02.862Z,58.87
2022-09-01T20:12:32.539Z,58.94
2022-09-01T20:17:44.151Z,58.84
2022-09-01T20:23:06.306Z,59.11
2022-09-01T20:28:39.361Z,59.14
2022-09-01T20:33:54.497Z,59.16
2022-09-01T20:39:39.407Z,59.31
2022-09-01T20:44:57.557Z,59.13
2022-09-01T20:50:02.062Z,59.25
2022-09-01T20:55:19.607Z,59.46
2022-09-01T21:00:26.089Z,59.35
2022-09-01T21:05:55.445Z,59.53
2022-09-01T21:11:17.889Z,59.57
2022-09-01T21:16:25.832Z,59.67
2022-09-01T21:21:50.603Z,59.47
2022-09-01T21:26:53.097Z,59.54
2022-09-01T21:31:56.077Z,59.64
2022-09-01T21:36:57.922Z,59.87
2022-09-01T21:41:59.883Z,59.74
2022-09-01T21:47:02.126Z,59.83
2022-09-01T21:52:05.843Z,60.09
2022-09-01T21:57:08.112Z,60.24
2022-09-01T22:02:10.501Z,60.09
2022-09-01T22:07:15.400Z,60.30
2022-09-01T22:12:17.250Z,60.27
2022-09-01T22:17:19.662Z,60.23
2022-09-01T22:22:21.474Z,60.25
2022-09-01T22:27:23.319Z,60.30
2022-09-01T22:32:28.759Z,60.53
2022-09-01T22:37:34.094Z,60.53
2022-09-01T22:42:36.680Z,60.55
2022-09-01T22:47:38.720Z,60.57
2022-09-01T22:52:40.708Z,60.71
2022-09-01T22:57:43.083Z,60.75
2022-09-01T23:02:45.179Z,60.84
2022-09-01T23:07:47.113Z,60.86
2022-09-01T23:12:48.893Z,60.81
2022-09-01T23:17:50.804Z,60.91
2022-09-01T23:22:52.843Z,60.83
2022-09-01T23:27:54.781Z,60.94
2022-09-01T23:32:58.138Z,61.24
2022-09-01T23:38:00.626Z,61.16
2022-09-01T23:43:02.458Z,61.30
2022-09-01T23:48:04.396Z,61.29
2022-09-01T23:53:06.225Z,61.24
2022-09-01T23:58:08.090Z,61.27
